Time;durP1;ratioP1;P1;durP2;ratioP2;P2;SDS_P1;SDS_P2;PMS_P1;PMS_P2;Temp;Humidity;BMP_temperature;BMP_pressure;BME280_temperature;BME280_humidity;BME280_pressure;Samples;Min_cycle;Max_cycle;Signal;HPM_P1;HPM_P2
2022/08/04 00:02:10;;;;;;;5.00;2.03;;;;;;;;;;4972000;28;20222;-63
2022/08/04 00:04:43;;;;;;;8.98;2.60;;;;;;;;;;4979150;28;20676;-63
2022/08/04 00:07:13;;;;;;;3.53;2.35;;;;;;;;;;4971128;28;20214;-63
2022/08/04 00:09:58;;;;;;;3.28;2.25;;;;;;;;;;4971425;28;20206;-63
2022/08/04 00:12:26;;;;;;;2.88;2.78;;;;;;;;;;4971668;28;20206;-63
2022/08/04 00:14:57;;;;;;;2.53;2.42;;;;;;;;;;4971093;28;20206;-63
2022/08/04 00:17:26;;;;;;;3.10;2.90;;;;;;;;;;4971271;28;20214;-63
2022/08/04 00:19:55;;;;;;;2.50;2.40;;;;;;;;;;4970339;28;20302;-63
2022/08/04 00:22:23;;;;;;;2.53;2.42;;;;;;;;;;4971217;28;20317;-63
2022/08/04 00:24:50;;;;;;;2.90;2.75;;;;;;;;;;4970784;28;20289;-63
2022/08/04 00:27:17;;;;;;;2.08;1.98;;;;;;;;;;4970994;28;20211;-63
2022/08/04 00:29:45;;;;;;;2.95;2.75;;;;;;;;;;4971121;28;20206;-63
2022/08/04 00:32:14;;;;;;;4.78;2.58;;;;;;;;;;4970910;28;20203;-63
2022/08/04 00:34:41;;;;;;;2.70;2.60;;;;;;;;;;4977416;28;20214;-63
2022/08/04 00:37:08;;;;;;;2.92;2.53;;;;;;;;;;4979187;28;20221;-62
2022/08/04 00:39:35;;;;;;;2.80;2.70;;;;;;;;;;4989265;28;20221;-63
2022/08/04 00:42:18;;;;;;;2.38;2.30;;;;;;;;;;4971118;28;20218;-63
2022/08/04 00:44:50;;;;;;;5.80;2.67;;;;;;;;;;4974681;28;21091;-63
2022/08/04 00:47:34;;;;;;;2.83;2.65;;;;;;;;;;4975332;28;20210;-63
2022/08/04 00:50:06;;;;;;;2.97;2.85;;;;;;;;;;4973596;28;20237;-63
2022/08/04 00:52:37;;;;;;;2.45;2.38;;;;;;;;;;4986547;28;20202;-63
2022/08/04 00:55:06;;;;;;;2.47;2.38;;;;;;;;;;4972014;28;20260;-63
2022/08/04 00:57:41;;;;;;;2.67;2.58;;;;;;;;;;4975990;28;20205;-63
2022/08/04 01:00:09;;;;;;;2.67;2.55;;;;;;;;;;4984389;28;20209;-63
2022/08/04 01:02:40;;;;;;;2.78;2.67;;;;;;;;;;4975681;28;20205;-63
2022/08/04 01:05:08;;;;;;;2.88;2.70;;;;;;;;;;4979608;28;20322;-63
2022/08/04 01:07:41;;;;;;;2.60;2.50;;;;;;;;;;4970427;28;20202;-63
2022/08/04 01:10:11;;;;;;;2.67;2.58;;;;;;;;;;4977844;28;20217;-62
2022/08/04 01:12:44;;;;;;;2.58;2.50;;;;;;;;;;4986860;28;20283;-63
2022/08/04 01:15:16;;;;;;;2.63;2.53;;;;;;;;;;4973585;28;20736;-63
2022/08/04 01:17:49;;;;;;;2.58;2.38;;;;;;;;;;4972616;28;20214;-63
2022/08/04 01:20:17;;;;;;;5.38;3.08;;;;;;;;;;4981099;28;20233;-62
2022/08/04 01:22:59;;;;;;;2.47;2.38;;;;;;;;;;4988481;28;20680;-63
2022/08/04 01:25:38;;;;;;;2.47;2.38;;;;;;;;;;4947511;28;20641;-63
2022/08/04 01:28:12;;;;;;;2.95;2.85;;;;;;;;;;4974145;28;20201;-63
2022/08/04 01:30:41;;;;;;;2.35;2.35;;;;;;;;;;4980533;28;20221;-63
2022/08/04 01:33:09;;;;;;;2.65;2.55;;;;;;;;;;4986587;28;20214;-62
2022/08/04 01:35:39;;;;;;;2.95;2.58;;;;;;;;;;4976724;28;20269;-62
2022/08/04 01:38:11;;;;;;;3.00;2.80;;;;;;;;;;4970339;28;20666;-62
2022/08/04 01:40:38;;;;;;;2.90;2.70;;;;;;;;;;4983663;28;20218;-64
2022/08/04 01:43:05;;;;;;;2.65;2.35;;;;;;;;;;4983054;28;20240;-62
2022/08/04 01:45:33;;;;;;;2.70;2.60;;;;;;;;;;4976937;28;20272;-63
2022/08/04 01:48:03;;;;;;;2.90;2.38;;;;;;;;;;4970961;28;20206;-62
2022/08/04 01:50:33;;;;;;;2.30;2.28;;;;;;;;;;4981903;28;20664;-63
2022/08/04 01:53:01;;;;;;;4.43;2.35;;;;;;;;;;4982804;28;20597;-62
2022/08/04 01:55:29;;;;;;;2.63;2.53;;;;;;;;;;4974727;28;20205;-62
2022/08/04 01:57:57;;;;;;;3.50;2.90;;;;;;;;;;4979913;28;20382;-62
2022/08/04 02:00:28;;;;;;;2.65;2.45;;;;;;;;;;4977491;28;20266;-62
2022/08/04 02:02:55;;;;;;;2.40;2.20;;;;;;;;;;4977959;28;20217;-62
2022/08/04 02:05:24;;;;;;;3.08;2.88;;;;;;;;;;4978740;28;20252;-62
2022/08/04 02:07:59;;;;;;;2.55;2.45;;;;;;;;;;4975849;28;20214;-62
2022/08/04 02:10:29;;;;;;;2.30;2.20;;;;;;;;;;4977716;28;20283;-62
2022/08/04 02:13:00;;;;;;;2.55;2.35;;;;;;;;;;4974755;28;20688;-62
2022/08/04 02:15:28;;;;;;;2.33;2.33;;;;;;;;;;4972180;28;20571;-62
2022/08/04 02:18:04;;;;;;;2.60;2.40;;;;;;;;;;4975861;28;20260;-62
2022/08/04 02:20:34;;;;;;;2.38;2.38;;;;;;;;;;4986398;28;20241;-62
2022/08/04 02:23:02;;;;;;;2.45;2.35;;;;;;;;;;4974289;28;20329;-62
2022/08/04 02:25:30;;;;;;;2.47;2.40;;;;;;;;;;4981475;28;20268;-62
2022/08/04 02:28:04;;;;;;;2.38;2.35;;;;;;;;;;4983027;28;20222;-62
2022/08/04 02:30:34;;;;;;;2.53;2.42;;;;;;;;;;4970059;28;20205;-63
2022/08/04 02:33:03;;;;;;;3.08;2.90;;;;;;;;;;4970050;28;20202;-63
2022/08/04 02:35:33;;;;;;;2.90;2.78;;;;;;;;;;4973486;28;20513;-63
2022/08/04 02:38:07;;;;;;;2.80;2.70;;;;;;;;;;4971112;28;20214;-63
2022/08/04 02:40:34;;;;;;;2.72;2.53;;;;;;;;;;4982077;28;20210;-63
2022/08/04 02:43:04;;;;;;;2.78;2.40;;;;;;;;;;4990298;28;20217;-63
2022/08/04 02:45:32;;;;;;;3.08;2.58;;;;;;;;;;4983622;28;20795;-63
2022/08/04 02:48:01;;;;;;;2.90;2.80;;;;;;;;;;4973278;28;20739;-63
2022/08/04 02:50:29;;;;;;;2.80;2.70;;;;;;;;;;4976582;28;20288;-65
2022/08/04 02:52:57;;;;;;;2.40;2.30;;;;;;;;;;4979341;28;20213;-65
2022/08/04 02:55:26;;;;;;;2.30;2.30;;;;;;;;;;4978454;28;20619;-64
2022/08/04 02:57:54;;;;;;;3.05;2.85;;;;;;;;;;4974484;28;20268;-64
2022/08/04 03:00:22;;;;;;;2.78;2.50;;;;;;;;;;4982113;28;20209;-64
2022/08/04 03:02:55;;;;;;;2.53;2.33;;;;;;;;;;4984612;28;20297;-64
2022/08/04 03:05:25;;;;;;;3.08;2.72;;;;;;;;;;4988423;28;20230;-64
2022/08/04 03:08:15;;;;;;;2.85;2.65;;;;;;;;;;4990224;28;20301;-64
2022/08/04 03:10:57;;;;;;;2.80;2.60;;;;;;;;;;4971958;28;20276;-64
2022/08/04 03:13:54;;;;;;;2.63;2.53;;;;;;;;;;4971368;28;20298;-65
2022/08/04 03:16:30;;;;;;;3.47;2.65;;;;;;;;;;4893466;29;20217;-65
2022/08/04 03:19:17;;;;;;;2.55;2.42;;;;;;;;;;4958605;28;20329;-64
2022/08/04 03:22:01;;;;;;;2.88;2.78;;;;;;;;;;4971438;28;20214;-64
2022/08/04 03:24:45;;;;;;;3.03;2.30;;;;;;;;;;4971693;28;20230;-65
2022/08/04 03:27:18;;;;;;;2.95;2.80;;;;;;;;;;4942582;28;20218;-65
2022/08/04 03:30:00;;;;;;;2.80;2.70;;;;;;;;;;4971445;28;20214;-64
2022/08/04 03:32:43;;;;;;;3.30;3.10;;;;;;;;;;4971686;28;20202;-64
2022/08/04 03:35:17;;;;;;;2.80;2.70;;;;;;;;;;4983043;28;20589;-64
2022/08/04 03:37:58;;;;;;;2.65;2.65;;;;;;;;;;4990876;28;20747;-64
2022/08/04 03:40:35;;;;;;;2.70;2.53;;;;;;;;;;4974752;28;20262;-64
2022/08/04 03:43:28;;;;;;;3.17;2.97;;;;;;;;;;4978615;28;20296;-64
2022/08/04 03:46:11;;;;;;;2.97;2.80;;;;;;;;;;4986340;28;20256;-65
2022/08/04 03:48:44;;;;;;;2.90;2.70;;;;;;;;;;4971249;28;20256;-64
2022/08/04 03:54:27;;;;;;;2.90;2.80;;;;;;;;;;4952872;28;20220;-64
2022/08/04 03:57:10;;;;;;;2.67;2.67;;;;;;;;;;4978213;28;20292;-64
2022/08/04 03:59:52;;;;;;;2.92;2.72;;;;;;;;;;4987160;28;20205;-64
2022/08/04 04:02:44;;;;;;;3.13;2.92;;;;;;;;;;4975839;28;20213;-64
2022/08/04 04:05:28;;;;;;;3.20;3.10;;;;;;;;;;4986615;28;20230;-64
2022/08/04 04:08:06;;;;;;;2.85;2.67;;;;;;;;;;4990863;28;20691;-64
2022/08/04 04:10:47;;;;;;;2.88;2.78;;;;;;;;;;4979720;28;20210;-64
2022/08/04 04:13:25;;;;;;;2.90;2.80;;;;;;;;;;4971451;28;20218;-64
2022/08/04 04:16:03;;;;;;;2.95;2.70;;;;;;;;;;4985997;28;20206;-64
2022/08/04 04:18:38;;;;;;;3.92;3.50;;;;;;;;;;4988164;28;20209;-64
2022/08/04 04:21:16;;;;;;;3.10;2.90;;;;;;;;;;4980178;28;20201;-64
2022/08/04 04:24:01;;;;;;;3.72;3.40;;;;;;;;;;4973588;28;20212;-64
2022/08/04 04:26:38;;;;;;;3.08;2.97;;;;;;;;;;4985965;28;20312;-64
2022/08/04 04:29:17;;;;;;;3.45;3.08;;;;;;;;;;4979019;28;20296;-64
2022/08/04 04:31:52;;;;;;;3.67;3.35;;;;;;;;;;4987862;28;20256;-63
2022/08/04 04:34:27;;;;;;;3.35;3.10;;;;;;;;;;4985491;28;20571;-64
2022/08/04 04:37:02;;;;;;;3.10;2.88;;;;;;;;;;4971531;28;20288;-64
2022/08/04 04:39:32;;;;;;;3.35;3.20;;;;;;;;;;4988354;28;20686;-64
2022/08/04 04:42:08;;;;;;;3.10;3.00;;;;;;;;;;4983665;28;20238;-64
2022/08/04 04:44:46;;;;;;;3.17;3.05;;;;;;;;;;4987581;28;20684;-64
2022/08/04 04:47:19;;;;;;;3.45;3.25;;;;;;;;;;4976981;28;20214;-64
2022/08/04 04:49:52;;;;;;;3.50;3.40;;;;;;;;;;4978234;28;20233;-64
2022/08/04 04:52:24;;;;;;;3.95;3.25;;;;;;;;;;4971022;28;20688;-64
2022/08/04 04:54:55;;;;;;;4.53;3.90;;;;;;;;;;4970804;28;20731;-64
2022/08/04 04:57:24;;;;;;;3.70;3.50;;;;;;;;;;4970863;28;20203;-64
2022/08/04 04:59:53;;;;;;;3.20;3.10;;;;;;;;;;4970639;28;20222;-64
2022/08/04 05:02:29;;;;;;;3.67;3.40;;;;;;;;;;4977542;28;20607;-64
2022/08/04 05:05:17;;;;;;;3.55;3.25;;;;;;;;;;4972094;28;20225;-64
2022/08/04 05:07:57;;;;;;;3.42;3.25;;;;;;;;;;4980728;28;20217;-64
2022/08/04 05:10:34;;;;;;;3.80;3.50;;;;;;;;;;4989613;28;20217;-64
2022/08/04 05:13:10;;;;;;;3.53;3.35;;;;;;;;;;4978127;28;20253;-64
2022/08/04 05:15:40;;;;;;;3.38;3.25;;;;;;;;;;4974881;28;20655;-64
2022/08/04 05:18:08;;;;;;;3.45;3.35;;;;;;;;;;4977810;28;20284;-64
2022/08/04 05:20:36;;;;;;;3.92;3.72;;;;;;;;;;4981844;28;20264;-64
2022/08/04 05:23:08;;;;;;;3.38;3.28;;;;;;;;;;4972048;28;20206;-64
2022/08/04 05:25:37;;;;;;;5.45;3.22;;;;;;;;;;4971832;28;20597;-64
2022/08/04 05:28:05;;;;;;;4.22;3.17;;;;;;;;;;4979085;28;20307;-64
2022/08/04 05:30:35;;;;;;;3.63;3.08;;;;;;;;;;4985401;28;20205;-64
2022/08/04 05:33:03;;;;;;;3.53;3.33;;;;;;;;;;4978474;28;20214;-64
2022/08/04 05:35:32;;;;;;;3.63;3.40;;;;;;;;;;4987024;28;20291;-64
2022/08/04 05:38:02;;;;;;;3.22;3.03;;;;;;;;;;4982093;28;20202;-64
2022/08/04 05:40:30;;;;;;;3.65;2.92;;;;;;;;;;4981676;28;20210;-64
2022/08/04 05:42:57;;;;;;;4.10;3.25;;;;;;;;;;4983449;28;20751;-64
2022/08/04 05:45:25;;;;;;;2.90;2.80;;;;;;;;;;4982257;28;20242;-70
2022/08/04 05:47:53;;;;;;;4.03;3.10;;;;;;;;;;4985659;28;20220;-64
2022/08/04 05:50:20;;;;;;;3.00;2.90;;;;;;;;;;4985573;28;20328;-64
2022/08/04 05:52:48;;;;;;;3.25;2.50;;;;;;;;;;4977871;28;20205;-64
2022/08/04 05:55:16;;;;;;;2.70;2.60;;;;;;;;;;4987126;28;20672;-65
2022/08/04 05:57:47;;;;;;;3.22;3.05;;;;;;;;;;4971790;28;20222;-65
2022/08/04 06:00:14;;;;;;;3.03;2.75;;;;;;;;;;4971067;28;20684;-64
2022/08/04 06:02:41;;;;;;;3.28;3.08;;;;;;;;;;4974489;28;20253;-65
2022/08/04 06:05:10;;;;;;;3.13;3.00;;;;;;;;;;4986669;28;20757;-63
2022/08/04 06:07:37;;;;;;;2.58;2.58;;;;;;;;;;4997420;28;20202;-65
2022/08/04 06:10:05;;;;;;;3.33;3.15;;;;;;;;;;4989459;28;20297;-64
2022/08/04 06:12:35;;;;;;;3.00;2.80;;;;;;;;;;4989075;28;20206;-65
2022/08/04 06:15:04;;;;;;;4.07;3.08;;;;;;;;;;5009334;28;20520;-65
2022/08/04 06:17:33;;;;;;;3.30;3.05;;;;;;;;;;4994853;28;20214;-62
2022/08/04 06:20:01;;;;;;;3.42;3.20;;;;;;;;;;4993044;28;20672;-63
2022/08/04 06:22:29;;;;;;;3.72;3.00;;;;;;;;;;4981294;28;20236;-64
2022/08/04 06:24:58;;;;;;;3.63;3.30;;;;;;;;;;4982311;28;20255;-64
2022/08/04 06:27:25;;;;;;;2.92;2.72;;;;;;;;;;5012975;28;20308;-64
2022/08/04 06:29:53;;;;;;;2.90;2.80;;;;;;;;;;5004036;28;20744;-64
2022/08/04 06:32:26;;;;;;;3.20;3.10;;;;;;;;;;4980849;28;20206;-64
2022/08/04 06:34:55;;;;;;;3.58;3.08;;;;;;;;;;5001443;28;20530;-64
2022/08/04 06:37:23;;;;;;;4.55;3.08;;;;;;;;;;5012498;28;20217;-64
2022/08/04 06:39:51;;;;;;;3.50;3.20;;;;;;;;;;5000521;28;20291;-65
2022/08/04 06:42:19;;;;;;;3.15;3.05;;;;;;;;;;4993140;28;20206;-64
2022/08/04 06:44:48;;;;;;;3.35;3.00;;;;;;;;;;4992919;28;20205;-64
2022/08/04 06:47:18;;;;;;;2.88;2.78;;;;;;;;;;4992584;28;20708;-64
2022/08/04 06:49:46;;;;;;;5.20;3.15;;;;;;;;;;4992627;28;20788;-64
2022/08/04 06:52:16;;;;;;;2.85;2.75;;;;;;;;;;4991247;28;20210;-64
2022/08/04 06:54:43;;;;;;;3.33;3.15;;;;;;;;;;4973456;28;20308;-64
2022/08/04 06:57:11;;;;;;;3.03;2.83;;;;;;;;;;4973366;28;20209;-64
2022/08/04 06:59:39;;;;;;;2.80;2.65;;;;;;;;;;4986721;28;20221;-64
2022/08/04 07:02:06;;;;;;;2.83;2.72;;;;;;;;;;4992298;28;20213;-64
2022/08/04 07:04:33;;;;;;;3.35;2.65;;;;;;;;;;4992034;28;20875;-65
2022/08/04 07:07:02;;;;;;;3.40;3.20;;;;;;;;;;4991807;28;20236;-64
2022/08/04 07:09:29;;;;;;;3.22;3.00;;;;;;;;;;4992340;28;20577;-64
2022/08/04 07:11:56;;;;;;;3.40;3.20;;;;;;;;;;4992405;28;20210;-64
2022/08/04 07:14:25;;;;;;;3.13;2.97;;;;;;;;;;4998705;28;20585;-64
2022/08/04 07:16:53;;;;;;;2.60;2.50;;;;;;;;;;5000185;28;20821;-64
2022/08/04 07:19:20;;;;;;;2.80;2.60;;;;;;;;;;4986250;28;20198;-64
2022/08/04 07:21:47;;;;;;;2.50;2.30;;;;;;;;;;4972576;28;20233;-64
2022/08/04 07:24:16;;;;;;;4.60;2.60;;;;;;;;;;4971245;28;20579;-64
2022/08/04 07:26:43;;;;;;;2.80;2.60;;;;;;;;;;4988897;28;20225;-64
2022/08/04 07:29:11;;;;;;;2.83;2.70;;;;;;;;;;4986986;28;20206;-78
2022/08/04 07:31:38;;;;;;;3.33;2.88;;;;;;;;;;4979860;28;20635;-65
2022/08/04 07:34:05;;;;;;;3.08;2.88;;;;;;;;;;4973065;28;20209;-65
2022/08/04 07:36:32;;;;;;;2.78;2.67;;;;;;;;;;4989364;28;20201;-65
2022/08/04 07:38:59;;;;;;;3.53;2.83;;;;;;;;;;4987516;28;20552;-65
2022/08/04 07:41:28;;;;;;;3.00;2.90;;;;;;;;;;4978274;28;20210;-64
2022/08/04 07:43:55;;;;;;;3.45;2.53;;;;;;;;;;4982261;28;20209;-65
2022/08/04 07:46:22;;;;;;;2.60;2.55;;;;;;;;;;4984367;28;20229;-64
2022/08/04 07:48:49;;;;;;;2.80;2.60;;;;;;;;;;4982431;28;20250;-66
2022/08/04 07:51:16;;;;;;;2.40;2.30;;;;;;;;;;4998144;28;20204;-70
2022/08/04 07:53:44;;;;;;;2.67;2.67;;;;;;;;;;4997483;28;20209;-67
2022/08/04 07:56:12;;;;;;;2.72;2.53;;;;;;;;;;4989047;28;20209;-66
2022/08/04 07:58:40;;;;;;;2.65;2.65;;;;;;;;;;4973693;28;20225;-65
2022/08/04 08:01:08;;;;;;;2.78;2.70;;;;;;;;;;4978500;28;20206;-65
2022/08/04 08:03:35;;;;;;;3.28;3.13;;;;;;;;;;4984994;28;20209;-65
2022/08/04 08:06:02;;;;;;;2.70;2.50;;;;;;;;;;4980129;28;20226;-64
2022/08/04 08:08:29;;;;;;;2.72;2.70;;;;;;;;;;4979022;28;20275;-66
2022/08/04 08:10:56;;;;;;;4.63;2.78;;;;;;;;;;4995991;28;20207;-64
2022/08/04 08:13:24;;;;;;;5.70;2.78;;;;;;;;;;4998150;28;20627;-65
2022/08/04 08:15:53;;;;;;;2.40;2.30;;;;;;;;;;4997320;28;20331;-65
2022/08/04 08:18:20;;;;;;;5.88;2.90;;;;;;;;;;4992651;28;20256;-65
2022/08/04 08:20:47;;;;;;;2.50;2.40;;;;;;;;;;4994712;28;20213;-64
2022/08/04 08:23:14;;;;;;;2.35;2.25;;;;;;;;;;4999357;28;20219;-64
2022/08/04 08:25:41;;;;;;;2.35;2.30;;;;;;;;;;4994791;28;20287;-65
2022/08/04 08:29:01;;;;;;;1.92;1.92;;;;;;;;;;4998192;28;20210;-65
2022/08/04 08:31:29;;;;;;;6.03;2.50;;;;;;;;;;4970028;28;20201;-65
2022/08/04 08:33:57;;;;;;;3.65;2.10;;;;;;;;;;4996381;28;20208;-64
2022/08/04 08:36:27;;;;;;;2.05;2.05;;;;;;;;;;4997200;28;20225;-65
2022/08/04 08:38:59;;;;;;;3.30;1.98;;;;;;;;;;4999621;28;20907;-65
2022/08/04 08:41:50;;;;;;;4.72;2.10;;;;;;;;;;4996820;28;20268;-65
2022/08/04 08:44:32;;;;;;;2.13;2.08;;;;;;;;;;4998651;28;20204;-65
2022/08/04 08:47:10;;;;;;;1.90;1.80;;;;;;;;;;4999257;28;20566;-65
2022/08/04 08:49:55;;;;;;;2.33;2.08;;;;;;;;;;4998545;28;20826;-65
2022/08/04 08:52:27;;;;;;;3.55;1.90;;;;;;;;;;4966479;28;20197;-65
2022/08/04 08:54:59;;;;;;;2.35;1.85;;;;;;;;;;4994520;28;20663;-65
2022/08/04 08:57:34;;;;;;;2.47;2.22;;;;;;;;;;4994463;28;20201;-65
2022/08/04 09:00:05;;;;;;;2.03;1.92;;;;;;;;;;4994166;28;20208;-65
2022/08/04 09:02:50;;;;;;;2.42;2.20;;;;;;;;;;4996467;28;20694;-65
2022/08/04 09:05:37;;;;;;;2.38;2.28;;;;;;;;;;4994073;28;20205;-65
2022/08/04 09:08:15;;;;;;;2.10;2.00;;;;;;;;;;4991157;28;20236;-65
2022/08/04 09:10:44;;;;;;;1.95;1.95;;;;;;;;;;4995178;28;20223;-65
2022/08/04 09:13:26;;;;;;;2.92;2.80;;;;;;;;;;4997956;28;20293;-65
2022/08/04 09:15:57;;;;;;;2.03;2.03;;;;;;;;;;5002017;28;20205;-65
2022/08/04 09:18:27;;;;;;;4.75;2.00;;;;;;;;;;4995783;28;20279;-65
2022/08/04 09:21:00;;;;;;;2.30;2.30;;;;;;;;;;4995619;28;20212;-65
2022/08/04 09:23:30;;;;;;;2.15;2.05;;;;;;;;;;4994861;28;20197;-65
2022/08/04 09:26:01;;;;;;;2.10;2.00;;;;;;;;;;4995879;28;20217;-65
2022/08/04 09:28:31;;;;;;;3.20;2.38;;;;;;;;;;4996905;28;20208;-63
2022/08/04 09:31:03;;;;;;;2.30;2.20;;;;;;;;;;4994144;28;20212;-65
2022/08/04 09:33:43;;;;;;;2.45;2.35;;;;;;;;;;4997046;28;20201;-71
2022/08/04 09:36:17;;;;;;;2.58;2.28;;;;;;;;;;4996134;28;20267;-66
2022/08/04 09:38:47;;;;;;;3.47;2.13;;;;;;;;;;4996388;28;20273;-66
2022/08/04 09:41:18;;;;;;;2.40;2.28;;;;;;;;;;4997237;28;20930;-66
2022/08/04 09:43:50;;;;;;;2.42;2.33;;;;;;;;;;4996297;28;20233;-65
2022/08/04 09:46:21;;;;;;;4.88;2.30;;;;;;;;;;4984565;28;20228;-69
2022/08/04 09:48:52;;;;;;;2.55;2.30;;;;;;;;;;4980232;28;20246;-64
2022/08/04 09:51:26;;;;;;;2.50;2.40;;;;;;;;;;4969924;28;20201;-64
2022/08/04 09:53:55;;;;;;;2.42;2.20;;;;;;;;;;4968071;28;20217;-63
2022/08/04 09:56:26;;;;;;;2.00;1.95;;;;;;;;;;4986694;28;20244;-63
2022/08/04 09:58:56;;;;;;;2.22;2.13;;;;;;;;;;4987081;28;20201;-64
2022/08/04 10:01:25;;;;;;;2.10;2.10;;;;;;;;;;4989493;28;20263;-63
2022/08/04 10:03:55;;;;;;;2.13;2.03;;;;;;;;;;4977959;28;20580;-64
2022/08/04 10:06:43;;;;;;;2.58;2.30;;;;;;;;;;4983909;28;20984;-64
2022/08/04 10:09:17;;;;;;;2.60;2.08;;;;;;;;;;4974329;28;20209;-64
2022/08/04 10:11:54;;;;;;;2.20;2.15;;;;;;;;;;4982440;28;20295;-63
2022/08/04 10:14:27;;;;;;;2.35;2.03;;;;;;;;;;4978641;28;20325;-63
2022/08/04 10:16:58;;;;;;;2.20;2.20;;;;;;;;;;4976380;28;20217;-63
2022/08/04 10:19:27;;;;;;;2.10;2.10;;;;;;;;;;4984618;28;20545;-63
2022/08/04 10:22:07;;;;;;;2.15;2.15;;;;;;;;;;5008411;28;20208;-64
2022/08/04 10:24:40;;;;;;;1.98;1.92;;;;;;;;;;4989395;28;20509;-63
2022/08/04 10:27:10;;;;;;;2.50;2.30;;;;;;;;;;4988644;28;20323;-63
2022/08/04 10:29:38;;;;;;;2.22;2.10;;;;;;;;;;4988182;28;20735;-64
2022/08/04 10:32:10;;;;;;;2.30;2.20;;;;;;;;;;4988504;28;20217;-63
2022/08/04 10:34:39;;;;;;;1.77;1.67;;;;;;;;;;4973844;28;20217;-64
2022/08/04 10:37:13;;;;;;;5.35;1.80;;;;;;;;;;4977932;28;20418;-64
2022/08/04 10:40:35;;;;;;;1.88;1.73;;;;;;;;;;4977895;28;20676;-63
2022/08/04 10:42:31;;;;;;;1.80;1.70;;;;;;;;;;4986362;28;20208;-63
2022/08/04 10:45:07;;;;;;;4.35;2.08;;;;;;;;;;4976971;28;20775;-63
2022/08/04 10:47:35;;;;;;;1.52;1.52;;;;;;;;;;4995733;28;20230;-64
2022/08/04 10:50:03;;;;;;;2.08;1.98;;;;;;;;;;4992486;28;20241;-62
2022/08/04 10:52:34;;;;;;;1.75;1.75;;;;;;;;;;4988501;28;20213;-62
2022/08/04 10:55:05;;;;;;;2.28;1.70;;;;;;;;;;4996733;28;20339;-62
2022/08/04 10:57:35;;;;;;;1.77;1.77;;;;;;;;;;4968932;28;20611;-62
2022/08/04 11:00:03;;;;;;;1.67;1.67;;;;;;;;;;4969991;28;20609;-62
2022/08/04 11:02:34;;;;;;;2.63;2.53;;;;;;;;;;4987052;28;20700;-62
2022/08/04 11:05:06;;;;;;;3.65;3.35;;;;;;;;;;4989983;28;20209;-61
2022/08/04 11:07:35;;;;;;;2.30;2.20;;;;;;;;;;4983059;28;20384;-61
2022/08/04 11:10:02;;;;;;;4.88;2.67;;;;;;;;;;4972311;28;20719;-61
2022/08/04 11:12:30;;;;;;;2.78;1.90;;;;;;;;;;4971907;28;20213;-61
2022/08/04 11:15:00;;;;;;;1.85;1.73;;;;;;;;;;4971740;28;20886;-62
2022/08/04 11:17:28;;;;;;;3.42;2.22;;;;;;;;;;4973049;28;20732;-69
2022/08/04 11:20:00;;;;;;;2.50;1.80;;;;;;;;;;4974173;28;20265;-63
2022/08/04 11:22:28;;;;;;;1.90;1.80;;;;;;;;;;4993792;28;20546;-63
2022/08/04 11:25:09;;;;;;;1.90;1.80;;;;;;;;;;4989731;28;20259;-63
2022/08/04 11:27:38;;;;;;;2.10;1.75;;;;;;;;;;4977359;28;20233;-64
2022/08/04 11:30:06;;;;;;;1.50;1.40;;;;;;;;;;4978181;28;20602;-63
2022/08/04 11:32:36;;;;;;;1.70;1.70;;;;;;;;;;4994472;28;20740;-65
2022/08/04 11:35:04;;;;;;;2.15;1.98;;;;;;;;;;4984095;28;20940;-63
2022/08/04 11:37:37;;;;;;;3.13;1.83;;;;;;;;;;4972851;28;20205;-62
2022/08/04 11:40:10;;;;;;;2.50;1.50;;;;;;;;;;4968572;28;20212;-63
2022/08/04 11:42:38;;;;;;;4.30;1.70;;;;;;;;;;4972625;28;20213;-62
2022/08/04 11:45:07;;;;;;;1.73;1.63;;;;;;;;;;4984333;28;20292;-64
2022/08/04 11:47:37;;;;;;;1.58;1.58;;;;;;;;;;4972076;28;20217;-62
2022/08/04 11:50:06;;;;;;;2.15;1.70;;;;;;;;;;4979075;28;20228;-63
2022/08/04 11:52:34;;;;;;;1.30;1.30;;;;;;;;;;4994611;28;20212;-63
2022/08/04 11:55:04;;;;;;;1.30;1.30;;;;;;;;;;4996095;28;20216;-62
2022/08/04 11:57:33;;;;;;;1.52;1.42;;;;;;;;;;4990604;28;20201;-68
2022/08/04 12:00:03;;;;;;;3.08;1.65;;;;;;;;;;4990397;28;20216;-63
2022/08/04 12:02:38;;;;;;;1.30;1.20;;;;;;;;;;4983015;28;20206;-63
2022/08/04 12:05:08;;;;;;;1.30;1.30;;;;;;;;;;4971562;28;20217;-63
2022/08/04 12:07:50;;;;;;;4.90;1.60;;;;;;;;;;4971390;28;20241;-64
2022/08/04 12:10:24;;;;;;;2.33;1.67;;;;;;;;;;4994252;28;20296;-63
2022/08/04 12:12:56;;;;;;;1.60;1.60;;;;;;;;;;5001399;28;20200;-63
2022/08/04 12:15:26;;;;;;;2.47;1.58;;;;;;;;;;4994758;28;20204;-63
2022/08/04 12:17:58;;;;;;;1.52;1.40;;;;;;;;;;4997753;28;20241;-64
2022/08/04 12:20:28;;;;;;;1.48;1.30;;;;;;;;;;4995333;28;20295;-64
2022/08/04 12:22:55;;;;;;;1.13;1.10;;;;;;;;;;5005736;28;20267;-63
2022/08/04 12:25:28;;;;;;;1.40;1.08;;;;;;;;;;4990661;28;20300;-64
2022/08/04 12:27:58;;;;;;;1.35;1.35;;;;;;;;;;4990195;28;20229;-64
2022/08/04 12:30:25;;;;;;;1.40;1.40;;;;;;;;;;4990412;28;20212;-64
2022/08/04 12:32:58;;;;;;;1.27;1.27;;;;;;;;;;4990228;28;20695;-64
2022/08/04 12:35:28;;;;;;;1.40;1.40;;;;;;;;;;4971544;28;20201;-64
2022/08/04 12:37:58;;;;;;;1.40;1.30;;;;;;;;;;4971383;28;20256;-64
2022/08/04 12:40:27;;;;;;;1.50;1.50;;;;;;;;;;4975014;28;20581;-64
2022/08/04 12:42:58;;;;;;;2.05;1.15;;;;;;;;;;4976570;28;20217;-65
2022/08/04 12:45:28;;;;;;;2.38;1.20;;;;;;;;;;4972285;28;20237;-67
2022/08/04 12:47:57;;;;;;;1.35;1.35;;;;;;;;;;4976467;28;20221;-66
2022/08/04 12:50:25;;;;;;;1.48;1.38;;;;;;;;;;4990520;28;20244;-66
2022/08/04 12:52:53;;;;;;;1.73;1.60;;;;;;;;;;4989959;28;20236;-65
2022/08/04 12:55:21;;;;;;;1.23;1.23;;;;;;;;;;4988506;28;20209;-66
2022/08/04 12:57:50;;;;;;;4.18;1.30;;;;;;;;;;4986570;28;20212;-66
2022/08/04 13:00:24;;;;;;;1.20;1.20;;;;;;;;;;4990412;28;20201;-66
2022/08/04 13:02:53;;;;;;;1.48;1.48;;;;;;;;;;4981104;28;20640;-66
2022/08/04 13:05:21;;;;;;;1.50;1.40;;;;;;;;;;4982170;28;20614;-63
2022/08/04 13:07:50;;;;;;;1.27;1.27;;;;;;;;;;4974830;28;20709;-63
2022/08/04 13:10:18;;;;;;;3.50;1.30;;;;;;;;;;4980936;28;20312;-64
2022/08/04 13:12:51;;;;;;;1.40;1.40;;;;;;;;;;4970678;28;20217;-65
2022/08/04 13:15:21;;;;;;;2.15;1.40;;;;;;;;;;4990983;28;20214;-65
2022/08/04 13:17:51;;;;;;;1.80;1.70;;;;;;;;;;5009008;28;20212;-64
2022/08/04 13:20:24;;;;;;;1.70;1.70;;;;;;;;;;5008908;28;20484;-65
2022/08/04 13:22:51;;;;;;;3.83;1.23;;;;;;;;;;5005814;28;20204;-64
2022/08/04 13:25:19;;;;;;;2.13;1.50;;;;;;;;;;4996463;28;20213;-64
2022/08/04 13:27:47;;;;;;;1.55;1.45;;;;;;;;;;4988193;28;20229;-64
2022/08/04 13:30:18;;;;;;;1.55;1.55;;;;;;;;;;4989534;28;20220;-64
2022/08/04 13:32:45;;;;;;;1.40;1.40;;;;;;;;;;4989083;28;20303;-64
2022/08/04 13:35:13;;;;;;;8.23;3.63;;;;;;;;;;4987408;28;20228;-64
2022/08/04 13:37:42;;;;;;;3.15;1.23;;;;;;;;;;4988885;28;20660;-63
2022/08/04 13:40:12;;;;;;;1.67;1.50;;;;;;;;;;4969772;28;20206;-63
2022/08/04 13:42:40;;;;;;;1.27;1.27;;;;;;;;;;4969480;28;20202;-64
2022/08/04 13:45:08;;;;;;;1.73;1.70;;;;;;;;;;4968976;28;20198;-63
2022/08/04 13:47:37;;;;;;;3.33;1.60;;;;;;;;;;4984193;28;20229;-66
2022/08/04 13:50:09;;;;;;;1.50;1.40;;;;;;;;;;4970171;28;20276;-63
2022/08/04 13:52:36;;;;;;;1.40;1.30;;;;;;;;;;4984599;28;20210;-63
2022/08/04 13:55:05;;;;;;;2.05;1.05;;;;;;;;;;4982951;28;20273;-62
2022/08/04 13:57:35;;;;;;;1.20;1.20;;;;;;;;;;4988582;28;20264;-62
2022/08/04 14:00:03;;;;;;;1.20;1.20;;;;;;;;;;4986071;28;20805;-61
2022/08/04 14:02:34;;;;;;;1.17;1.17;;;;;;;;;;4981337;28;20314;-62
2022/08/04 14:05:05;;;;;;;1.92;1.60;;;;;;;;;;4987366;28;20623;-62
2022/08/04 14:07:32;;;;;;;1.00;0.98;;;;;;;;;;4977353;28;20201;-62
2022/08/04 14:09:59;;;;;;;1.15;1.15;;;;;;;;;;4991553;28;20210;-62
2022/08/04 14:12:27;;;;;;;1.85;1.40;;;;;;;;;;4987496;28;20197;-62
2022/08/04 14:14:54;;;;;;;1.02;1.02;;;;;;;;;;4982849;28;20264;-62
2022/08/04 14:17:25;;;;;;;1.73;1.25;;;;;;;;;;4987932;28;20237;-62
2022/08/04 14:19:53;;;;;;;1.20;1.20;;;;;;;;;;4979147;28;20214;-62
2022/08/04 14:22:32;;;;;;;1.42;1.40;;;;;;;;;;4979456;28;20209;-64
2022/08/04 14:24:59;;;;;;;1.17;1.17;;;;;;;;;;4988677;28;20271;-64
2022/08/04 14:27:28;;;;;;;3.20;1.35;;;;;;;;;;4988532;28;20758;-62
2022/08/04 14:29:56;;;;;;;1.30;1.30;;;;;;;;;;4977451;28;20289;-64
2022/08/04 14:32:23;;;;;;;6.13;1.40;;;;;;;;;;4972483;28;20825;-63
2022/08/04 14:34:50;;;;;;;1.38;1.27;;;;;;;;;;4984547;28;20215;-63
2022/08/04 14:37:18;;;;;;;1.40;1.30;;;;;;;;;;4988636;28;20210;-64
2022/08/04 14:39:46;;;;;;;1.35;1.17;;;;;;;;;;4982112;28;20201;-64
2022/08/04 14:42:14;;;;;;;1.30;1.30;;;;;;;;;;4981504;28;20209;-64
2022/08/04 14:44:55;;;;;;;1.23;1.23;;;;;;;;;;4973067;28;20214;-64
2022/08/04 14:47:41;;;;;;;4.05;2.30;;;;;;;;;;4988934;28;20214;-64
2022/08/04 14:50:09;;;;;;;1.50;1.50;;;;;;;;;;4980735;28;20239;-64
2022/08/04 14:52:36;;;;;;;3.17;1.30;;;;;;;;;;4991650;28;20209;-64
2022/08/04 14:55:24;;;;;;;1.35;1.30;;;;;;;;;;4992054;28;20213;-64
2022/08/04 14:57:52;;;;;;;1.33;1.33;;;;;;;;;;4973665;28;20210;-64
2022/08/04 15:00:27;;;;;;;1.48;1.10;;;;;;;;;;4977230;28;20300;-64
2022/08/04 15:02:55;;;;;;;1.83;1.50;;;;;;;;;;4993461;28;20243;-64
2022/08/04 15:05:22;;;;;;;1.33;1.30;;;;;;;;;;4998728;28;20231;-64
2022/08/04 15:07:50;;;;;;;2.05;1.25;;;;;;;;;;5011690;28;20265;-64
2022/08/04 15:10:17;;;;;;;1.73;1.20;;;;;;;;;;4976782;28;20660;-64
2022/08/04 15:12:44;;;;;;;1.73;1.67;;;;;;;;;;5011667;28;20262;-64